createdAt,value
2023-03-08T00:00:15.506Z,993.64
2023-03-08T00:01:15.501Z,993.68
2023-03-08T00:02:15.499Z,993.67
2023-03-08T00:03:15.511Z,993.79
2023-03-08T00:04:15.806Z,993.77
2023-03-08T00:05:15.505Z,993.73
2023-03-08T00:06:15.512Z,993.74
2023-03-08T00:07:15.499Z,993.79
2023-03-08T00:08:15.534Z,993.79
2023-03-08T00:09:15.500Z,993.83
2023-03-08T00:10:15.500Z,993.87
2023-03-08T00:11:15.507Z,993.85
2023-03-08T00:12:15.523Z,993.88
2023-03-08T00:13:15.502Z,993.91
2023-03-08T00:14:15.499Z,993.89
2023-03-08T00:15:15.501Z,993.93
2023-03-08T00:16:15.550Z,993.93
2023-03-08T00:17:15.501Z,993.95
2023-03-08T00:18:15.512Z,993.95
2023-03-08T00:19:15.501Z,993.95
2023-03-08T00:20:15.525Z,993.91
2023-03-08T00:21:15.509Z,993.94
2023-03-08T00:22:15.517Z,993.97
2023-03-08T00:23:15.507Z,993.97
2023-03-08T00:24:15.505Z,993.98
2023-03-08T00:25:15.501Z,994.01
2023-03-08T00:26:15.517Z,993.99
2023-03-08T00:27:15.500Z,994.01
2023-03-08T00:28:15.534Z,994.06
2023-03-08T00:29:15.615Z,994.10
2023-03-08T00:30:15.513Z,994.10
2023-03-08T00:31:15.622Z,994.15
2023-03-08T00:32:15.587Z,994.16
2023-03-08T00:33:15.504Z,994.14
2023-03-08T00:34:15.514Z,994.13
2023-03-08T00:35:15.512Z,994.18
2023-03-08T00:36:15.518Z,994.12
2023-03-08T00:37:15.516Z,994.15
2023-03-08T00:38:15.508Z,994.17
2023-03-08T00:39:15.510Z,994.12
2023-03-08T00:40:15.514Z,994.15
2023-03-08T00:41:15.511Z,994.13
2023-03-08T00:42:15.508Z,994.17
2023-03-08T00:43:15.512Z,994.14
2023-03-08T00:44:15.547Z,994.18
2023-03-08T00:45:15.508Z,994.19
2023-03-08T00:46:15.556Z,994.19
2023-03-08T00:47:15.518Z,994.22
2023-03-08T00:48:15.512Z,994.24
2023-03-08T00:49:15.519Z,994.24
2023-03-08T00:50:15.515Z,994.31
2023-03-08T00:51:15.518Z,994.29
2023-03-08T00:52:15.521Z,994.28
2023-03-08T00:53:15.513Z,994.28
2023-03-08T00:54:15.510Z,994.29
2023-03-08T00:55:15.520Z,994.34
2023-03-08T00:56:15.516Z,994.29
2023-03-08T00:57:15.523Z,994.31
2023-03-08T00:58:15.520Z,994.31
2023-03-08T00:59:15.514Z,994.27
2023-03-08T01:00:15.543Z,994.31
2023-03-08T01:01:15.609Z,994.33
2023-03-08T01:02:15.512Z,994.33
2023-03-08T01:03:15.520Z,994.34
2023-03-08T01:04:15.525Z,994.38
2023-03-08T01:05:15.520Z,994.38
2023-03-08T01:06:15.512Z,994.41
2023-03-08T01:07:15.524Z,994.43
2023-03-08T01:08:15.520Z,994.42
2023-03-08T01:09:15.513Z,994.42
2023-03-08T01:10:15.512Z,994.43
2023-03-08T01:11:15.521Z,994.46
2023-03-08T01:12:15.526Z,994.44
2023-03-08T01:13:15.514Z,994.45
2023-03-08T01:14:15.524Z,994.46
2023-03-08T01:15:15.514Z,994.45
2023-03-08T01:16:15.637Z,994.45
2023-03-08T01:17:15.512Z,994.47
2023-03-08T01:18:15.520Z,994.47
2023-03-08T01:19:15.521Z,994.44
2023-03-08T01:20:15.516Z,994.46
2023-03-08T01:21:15.520Z,994.47
2023-03-08T01:22:15.514Z,994.50
2023-03-08T01:23:15.521Z,994.49
2023-03-08T01:24:15.518Z,994.50
2023-03-08T01:25:15.513Z,994.50
2023-03-08T01:26:15.523Z,994.51
2023-03-08T01:27:15.513Z,994.51
2023-03-08T01:28:15.523Z,994.50
2023-03-08T01:29:15.517Z,994.51
2023-03-08T01:30:15.522Z,994.53
2023-03-08T01:31:15.519Z,994.52
2023-03-08T01:32:15.593Z,994.55
2023-03-08T01:33:15.514Z,994.51
2023-03-08T01:34:15.515Z,994.51
2023-03-08T01:35:15.538Z,994.50
2023-03-08T01:36:15.522Z,994.51
2023-03-08T01:37:15.517Z,994.51
2023-03-08T01:38:15.517Z,994.51
2023-03-08T01:39:15.521Z,994.56
2023-03-08T01:40:15.517Z,994.55
2023-03-08T01:41:15.521Z,994.51
2023-03-08T01:42:15.542Z,994.52
2023-03-08T01:43:15.522Z,994.54
2023-03-08T01:44:15.535Z,994.49
2023-03-08T01:45:15.514Z,994.52
2023-03-08T01:46:15.520Z,994.54
2023-03-08T01:47:15.524Z,994.53
2023-03-08T01:48:15.543Z,994.55
2023-03-08T01:49:15.527Z,994.52
2023-03-08T01:50:15.525Z,994.52
2023-03-08T01:51:15.532Z,994.52
2023-03-08T01:52:15.519Z,994.48
2023-03-08T01:53:15.521Z,994.49
2023-03-08T01:54:15.518Z,994.49
2023-03-08T01:55:15.526Z,994.49
2023-03-08T01:56:15.523Z,994.52
2023-03-08T01:57:15.518Z,994.50
2023-03-08T01:58:15.519Z,994.51
2023-03-08T01:59:15.521Z,994.50
2023-03-08T02:00:15.526Z,994.50
2023-03-08T02:01:15.581Z,994.52
2023-03-08T02:02:15.519Z,994.48
2023-03-08T02:03:15.529Z,994.49
2023-03-08T02:04:15.545Z,994.50
2023-03-08T02:05:15.522Z,994.46
2023-03-08T02:06:15.534Z,994.48
2023-03-08T02:07:15.527Z,994.44
2023-03-08T02:08:15.534Z,994.45
2023-03-08T02:09:15.527Z,994.41
2023-03-08T02:10:15.528Z,994.41
2023-03-08T02:11:15.532Z,994.39
2023-03-08T02:12:15.533Z,994.44
2023-03-08T02:13:15.533Z,994.42
2023-03-08T02:14:15.529Z,994.42
2023-03-08T02:15:15.549Z,994.37
2023-03-08T02:16:15.542Z,994.38
2023-03-08T02:17:15.529Z,994.39
2023-03-08T02:18:15.544Z,994.43
2023-03-08T02:19:15.541Z,994.42
2023-03-08T02:20:15.562Z,994.41
2023-03-08T02:21:15.539Z,994.37
2023-03-08T02:22:15.554Z,994.37
2023-03-08T02:23:15.541Z,994.34
2023-03-08T02:24:15.545Z,994.31
2023-03-08T02:25:15.537Z,994.34
2023-03-08T02:26:15.538Z,994.32
2023-03-08T02:27:15.546Z,994.37
2023-03-08T02:28:15.550Z,994.35
2023-03-08T02:29:15.548Z,994.35
2023-03-08T02:30:15.577Z,994.34
2023-03-08T02:31:15.550Z,994.34
2023-03-08T02:32:15.578Z,994.32
2023-03-08T02:33:15.546Z,994.33
2023-03-08T02:34:15.549Z,994.32
2023-03-08T02:35:15.548Z,994.26
2023-03-08T02:36:15.585Z,994.32
2023-03-08T02:37:15.546Z,994.27
2023-03-08T02:38:15.553Z,994.29
2023-03-08T02:39:15.547Z,994.32
2023-03-08T02:40:15.559Z,994.27
2023-03-08T02:41:15.549Z,994.28
2023-03-08T02:42:15.558Z,994.30
2023-03-08T02:43:15.557Z,994.32
2023-03-08T02:44:15.561Z,994.31
2023-03-08T02:45:15.561Z,994.32
2023-03-08T02:46:15.550Z,994.31
2023-03-08T02:47:15.550Z,994.32
2023-03-08T02:48:15.562Z,994.29
2023-03-08T02:49:15.558Z,994.29
2023-03-08T02:50:15.561Z,994.31
2023-03-08T02:51:15.557Z,994.29
2023-03-08T02:52:15.575Z,994.30
2023-03-08T02:53:15.577Z,994.28
2023-03-08T02:54:16.983Z,994.30
2023-03-08T02:55:15.562Z,994.28
2023-03-08T02:56:15.556Z,994.28
2023-03-08T02:57:15.565Z,994.26
2023-03-08T02:58:15.560Z,994.30
2023-03-08T02:59:15.564Z,994.29
2023-03-08T03:00:15.563Z,994.30
2023-03-08T03:01:15.621Z,994.32
2023-03-08T03:02:15.559Z,994.32
2023-03-08T03:03:15.566Z,994.29
2023-03-08T03:04:15.567Z,994.29
2023-03-08T03:05:15.568Z,994.27
2023-03-08T03:06:15.640Z,994.32
2023-03-08T03:07:15.566Z,994.28
2023-03-08T03:08:15.598Z,994.24
2023-03-08T03:09:15.563Z,994.27
2023-03-08T03:10:15.570Z,994.28
2023-03-08T03:11:15.571Z,994.29
2023-03-08T03:12:15.564Z,994.31
2023-03-08T03:13:15.576Z,994.27
2023-03-08T03:14:15.563Z,994.29
2023-03-08T03:15:15.569Z,994.29
2023-03-08T03:16:15.624Z,994.34
2023-03-08T03:17:15.566Z,994.32
2023-03-08T03:18:15.568Z,994.33
2023-03-08T03:19:15.565Z,994.31
2023-03-08T03:20:15.563Z,994.31
2023-03-08T03:21:15.573Z,994.32
2023-03-08T03:22:15.571Z,994.34
2023-03-08T03:23:15.567Z,994.31
2023-03-08T03:24:15.587Z,994.28
2023-03-08T03:25:15.574Z,994.27
2023-03-08T03:26:15.563Z,994.28
2023-03-08T03:27:15.563Z,994.23
2023-03-08T03:28:15.569Z,994.26
2023-03-08T03:29:15.565Z,994.25
2023-03-08T03:30:15.579Z,994.22
2023-03-08T03:31:15.622Z,994.27
2023-03-08T03:32:15.600Z,994.27
2023-03-08T03:33:15.570Z,994.31
2023-03-08T03:34:15.563Z,994.31
2023-03-08T03:35:15.569Z,994.27
2023-03-08T03:36:15.569Z,994.29
2023-03-08T03:37:15.564Z,994.31
2023-03-08T03:38:15.571Z,994.29
2023-03-08T03:39:15.573Z,994.25
2023-03-08T03:40:15.600Z,994.26
2023-03-08T03:41:15.572Z,994.29
2023-03-08T03:42:15.572Z,994.29
2023-03-08T03:43:15.574Z,994.30
2023-03-08T03:44:15.569Z,994.26
2023-03-08T03:45:15.567Z,994.23
2023-03-08T03:46:15.624Z,994.19
2023-03-08T03:47:15.578Z,994.21
2023-03-08T03:48:15.570Z,994.22
2023-03-08T03:49:15.570Z,994.25
2023-03-08T03:50:15.571Z,994.27
2023-03-08T03:51:15.581Z,994.28
2023-03-08T03:52:15.581Z,994.29
2023-03-08T03:53:15.575Z,994.29
2023-03-08T03:54:15.581Z,994.28
2023-03-08T03:55:15.585Z,994.31
2023-03-08T03:56:15.657Z,994.31
2023-03-08T03:57:15.585Z,994.33
2023-03-08T03:58:15.586Z,994.31
2023-03-08T03:59:15.584Z,994.36
2023-03-08T04:00:15.599Z,994.33
2023-03-08T04:01:15.587Z,994.29
2023-03-08T04:02:15.590Z,994.31
2023-03-08T04:03:15.733Z,994.26
2023-03-08T04:04:15.582Z,994.26
2023-03-08T04:05:15.600Z,994.22
2023-03-08T04:06:15.583Z,994.25
2023-03-08T04:07:15.584Z,994.26
2023-03-08T04:08:15.585Z,994.29
2023-03-08T04:09:15.610Z,994.27
2023-03-08T04:10:15.593Z,994.27
2023-03-08T04:11:15.590Z,994.28
2023-03-08T04:12:15.716Z,994.25
2023-03-08T04:13:15.652Z,994.25
2023-03-08T04:14:15.594Z,994.30
2023-03-08T04:15:15.587Z,994.32
2023-03-08T04:16:15.651Z,994.27
2023-03-08T04:17:15.599Z,994.32
2023-03-08T04:18:15.591Z,994.29
2023-03-08T04:19:15.596Z,994.34
2023-03-08T04:20:15.597Z,994.33
2023-03-08T04:21:15.586Z,994.32
2023-03-08T04:22:15.597Z,994.30
2023-03-08T04:23:15.594Z,994.30
2023-03-08T04:24:15.597Z,994.25
2023-03-08T04:25:15.594Z,994.29
2023-03-08T04:26:15.593Z,994.29
2023-03-08T04:27:15.596Z,994.23
2023-03-08T04:28:15.613Z,994.30
2023-03-08T04:29:15.588Z,994.29
2023-03-08T04:30:15.596Z,994.29
2023-03-08T04:31:15.609Z,994.31
2023-03-08T04:32:15.674Z,994.31
2023-03-08T04:33:15.603Z,994.32
2023-03-08T04:34:15.597Z,994.28
2023-03-08T04:35:15.593Z,994.25
2023-03-08T04:36:15.591Z,994.26
2023-03-08T04:37:15.594Z,994.22
2023-03-08T04:38:15.591Z,994.25
2023-03-08T04:39:15.600Z,994.20
2023-03-08T04:40:15.597Z,994.20
2023-03-08T04:41:15.603Z,994.15
2023-03-08T04:42:15.592Z,994.19
2023-03-08T04:43:15.596Z,994.21
2023-03-08T04:44:15.642Z,994.20
2023-03-08T04:45:15.596Z,994.19
2023-03-08T04:46:15.633Z,994.22
2023-03-08T04:47:15.598Z,994.20
2023-03-08T04:48:15.604Z,994.22
2023-03-08T04:49:15.599Z,994.24
2023-03-08T04:50:15.605Z,994.20
2023-03-08T04:51:15.617Z,994.23
2023-03-08T04:52:15.601Z,994.20
2023-03-08T04:53:15.607Z,994.26
2023-03-08T04:54:15.616Z,994.25
2023-03-08T04:55:15.606Z,994.29
2023-03-08T04:56:15.611Z,994.28
2023-03-08T04:57:15.606Z,994.30
2023-03-08T04:58:15.600Z,994.32
2023-03-08T04:59:15.609Z,994.33
2023-03-08T05:00:15.636Z,994.31
2023-03-08T05:01:15.614Z,994.30
2023-03-08T05:02:15.609Z,994.30
2023-03-08T05:03:15.612Z,994.26
2023-03-08T05:04:15.604Z,994.28
2023-03-08T05:05:15.723Z,994.28
2023-03-08T05:06:15.616Z,994.30
2023-03-08T05:07:15.608Z,994.30
2023-03-08T05:08:15.619Z,994.31
2023-03-08T05:09:15.607Z,994.32
2023-03-08T05:10:15.608Z,994.31
2023-03-08T05:11:15.611Z,994.30
2023-03-08T05:12:15.617Z,994.33
2023-03-08T05:13:15.620Z,994.32
2023-03-08T05:14:16.222Z,994.34
2023-03-08T05:15:15.617Z,994.33
2023-03-08T05:16:15.785Z,994.34
2023-03-08T05:17:15.608Z,994.32
2023-03-08T05:18:15.619Z,994.33
2023-03-08T05:19:15.611Z,994.34
2023-03-08T05:20:15.612Z,994.36
2023-03-08T05:21:15.618Z,994.43
2023-03-08T05:22:15.612Z,994.37
2023-03-08T05:23:15.621Z,994.42
2023-03-08T05:24:15.612Z,994.47
2023-03-08T05:25:15.627Z,994.47
2023-03-08T05:26:15.615Z,994.42
2023-03-08T05:27:15.629Z,994.44
2023-03-08T05:28:15.623Z,994.42
2023-03-08T05:29:15.637Z,994.40
2023-03-08T05:30:15.621Z,994.40
2023-03-08T05:31:15.667Z,994.38
2023-03-08T05:32:15.697Z,994.39
2023-03-08T05:33:15.624Z,994.38
2023-03-08T05:34:15.615Z,994.36
2023-03-08T05:35:15.624Z,994.38
2023-03-08T05:36:15.624Z,994.33
2023-03-08T05:37:15.630Z,994.28
2023-03-08T05:38:15.619Z,994.30
2023-03-08T05:39:15.623Z,994.32
2023-03-08T05:40:15.618Z,994.36
2023-03-08T05:41:15.621Z,994.32
2023-03-08T05:42:15.630Z,994.31
2023-03-08T05:43:15.621Z,994.31
2023-03-08T05:44:15.619Z,994.29
2023-03-08T05:45:15.706Z,994.32
2023-03-08T05:46:15.696Z,994.33
2023-03-08T05:47:15.628Z,994.34
2023-03-08T05:48:15.648Z,994.37
2023-03-08T05:49:15.642Z,994.29
2023-03-08T05:50:15.639Z,994.27
2023-03-08T05:51:15.679Z,994.29
2023-03-08T05:52:15.629Z,994.31
2023-03-08T05:53:15.628Z,994.36
2023-03-08T05:54:15.628Z,994.32
2023-03-08T05:55:15.628Z,994.33
2023-03-08T05:56:15.643Z,994.32
2023-03-08T05:57:15.623Z,994.33
2023-03-08T05:58:15.619Z,994.33
2023-03-08T05:59:15.628Z,994.31
2023-03-08T06:00:15.627Z,994.31
2023-03-08T06:01:15.632Z,994.30
2023-03-08T06:02:15.675Z,994.29
2023-03-08T06:03:15.644Z,994.32
2023-03-08T06:04:15.649Z,994.28
2023-03-08T06:05:15.632Z,994.27
2023-03-08T06:06:15.633Z,994.28
2023-03-08T06:07:15.628Z,994.24
2023-03-08T06:08:15.629Z,994.23
2023-03-08T06:09:15.621Z,994.24
2023-03-08T06:10:15.623Z,994.22
2023-03-08T06:11:15.629Z,994.21
2023-03-08T06:12:15.630Z,994.21
2023-03-08T06:13:15.626Z,994.20
2023-03-08T06:14:15.640Z,994.18
2023-03-08T06:15:15.628Z,994.17
2023-03-08T06:16:15.666Z,994.18
2023-03-08T06:17:15.623Z,994.19
2023-03-08T06:18:15.632Z,994.17
2023-03-08T06:19:15.645Z,994.21
2023-03-08T06:20:15.655Z,994.20
2023-03-08T06:21:15.634Z,994.24
2023-03-08T06:22:15.635Z,994.21
2023-03-08T06:23:15.628Z,994.21
2023-03-08T06:24:15.626Z,994.21
2023-03-08T06:25:15.629Z,994.25
2023-03-08T06:26:15.631Z,994.24
2023-03-08T06:27:15.643Z,994.19
2023-03-08T06:28:15.635Z,994.18
2023-03-08T06:29:15.644Z,994.20
2023-03-08T06:30:15.655Z,994.22
2023-03-08T06:31:15.637Z,994.21
2023-03-08T06:32:15.664Z,994.17
2023-03-08T06:33:15.638Z,994.16
2023-03-08T06:34:15.648Z,994.17
2023-03-08T06:35:15.642Z,994.22
2023-03-08T06:36:15.673Z,994.26
2023-03-08T06:37:15.651Z,994.28
2023-03-08T06:38:15.645Z,994.29
2023-03-08T06:39:15.650Z,994.30
2023-03-08T06:40:15.656Z,994.25
2023-03-08T06:41:15.661Z,994.23
2023-03-08T06:42:15.657Z,994.26
2023-03-08T06:43:15.662Z,994.24
2023-03-08T06:44:15.660Z,994.26
2023-03-08T06:45:15.663Z,994.25
2023-03-08T06:46:15.698Z,994.24
2023-03-08T06:47:15.662Z,994.27
2023-03-08T06:48:15.663Z,994.21
2023-03-08T06:49:15.656Z,994.25
2023-03-08T06:50:15.665Z,994.25
2023-03-08T06:51:15.676Z,994.28
2023-03-08T06:52:15.698Z,994.33
2023-03-08T06:53:15.668Z,994.31
2023-03-08T06:54:15.670Z,994.37
2023-03-08T06:55:15.663Z,994.36
2023-03-08T06:56:15.677Z,994.34
2023-03-08T06:57:15.671Z,994.34
2023-03-08T06:58:15.682Z,994.33
2023-03-08T06:59:15.688Z,994.34
2023-03-08T07:00:15.675Z,994.31
2023-03-08T07:01:15.774Z,994.31
2023-03-08T07:02:15.669Z,994.33
2023-03-08T07:03:15.676Z,994.30
2023-03-08T07:04:15.692Z,994.34
2023-03-08T07:05:15.678Z,994.33
2023-03-08T07:06:15.670Z,994.31
2023-03-08T07:07:15.710Z,994.27
2023-03-08T07:08:15.704Z,994.29
2023-03-08T07:09:15.673Z,994.30
2023-03-08T07:10:15.683Z,994.32
2023-03-08T07:11:15.677Z,994.32
2023-03-08T07:12:15.676Z,994.32
2023-03-08T07:13:15.689Z,994.26
2023-03-08T07:14:15.701Z,994.26
2023-03-08T07:15:15.684Z,994.25
2023-03-08T07:16:15.764Z,994.29
2023-03-08T07:17:15.676Z,994.28
2023-03-08T07:18:16.143Z,994.29
2023-03-08T07:19:15.679Z,994.27
2023-03-08T07:20:15.687Z,994.27
2023-03-08T07:21:15.689Z,994.30
2023-03-08T07:22:15.687Z,994.31
2023-03-08T07:23:15.689Z,994.24
2023-03-08T07:24:15.729Z,994.27
2023-03-08T07:25:15.686Z,994.22
2023-03-08T07:26:15.689Z,994.22
2023-03-08T07:27:15.685Z,994.19
2023-03-08T07:28:15.684Z,994.20
2023-03-08T07:29:15.694Z,994.20
2023-03-08T07:30:15.704Z,994.25
2023-03-08T07:31:15.696Z,994.23
2023-03-08T07:32:15.927Z,994.27
2023-03-08T07:33:15.753Z,994.30
2023-03-08T07:34:15.698Z,994.30
2023-03-08T07:35:15.702Z,994.23
2023-03-08T07:36:15.769Z,994.23
2023-03-08T07:37:15.705Z,994.19
2023-03-08T07:38:15.707Z,994.17
2023-03-08T07:39:15.703Z,994.15
2023-03-08T07:40:15.732Z,994.17
2023-03-08T07:41:15.711Z,994.19
2023-03-08T07:42:15.706Z,994.16
2023-03-08T07:43:15.708Z,994.13
2023-03-08T07:44:15.718Z,994.10
2023-03-08T07:45:15.720Z,994.12
2023-03-08T07:46:15.748Z,994.08
2023-03-08T07:47:15.715Z,994.10
2023-03-08T07:48:15.728Z,994.12
2023-03-08T07:49:15.730Z,994.05
2023-03-08T07:50:15.729Z,994.05
2023-03-08T07:51:15.825Z,994.06
2023-03-08T07:52:15.736Z,994.04
2023-03-08T07:53:15.745Z,994.06
2023-03-08T07:54:15.729Z,994.04
2023-03-08T07:55:15.743Z,994.03
2023-03-08T07:56:15.762Z,994.04
2023-03-08T07:57:15.743Z,994.06
2023-03-08T07:58:15.734Z,994.04
2023-03-08T07:59:15.744Z,993.96
2023-03-08T08:00:15.751Z,993.96
2023-03-08T08:01:15.741Z,993.93
2023-03-08T08:02:15.740Z,993.90
2023-03-08T08:03:15.809Z,993.88
2023-03-08T08:04:15.879Z,993.88
2023-03-08T08:05:15.870Z,993.92
2023-03-08T08:06:15.756Z,993.84
2023-03-08T08:07:15.759Z,993.83
2023-03-08T08:08:15.758Z,993.80
2023-03-08T08:09:15.761Z,993.80
2023-03-08T08:10:15.757Z,993.84
2023-03-08T08:11:15.760Z,993.83
2023-03-08T08:12:15.799Z,993.77
2023-03-08T08:13:15.760Z,993.77
2023-03-08T08:14:15.762Z,993.77
2023-03-08T08:15:15.774Z,993.74
2023-03-08T08:16:16.841Z,993.74
2023-03-08T08:17:15.771Z,993.72
2023-03-08T08:18:15.776Z,993.71
2023-03-08T08:19:15.782Z,993.72
2023-03-08T08:20:15.782Z,993.65
2023-03-08T08:21:15.777Z,993.67
2023-03-08T08:22:15.776Z,993.64
2023-03-08T08:23:15.780Z,993.66
2023-03-08T08:24:15.780Z,993.68
2023-03-08T08:25:15.788Z,993.69
2023-03-08T08:26:15.792Z,993.67
2023-03-08T08:27:15.791Z,993.64
2023-03-08T08:28:15.818Z,993.59
2023-03-08T08:29:15.796Z,993.63
2023-03-08T08:30:15.809Z,993.64
2023-03-08T08:31:15.839Z,993.63
2023-03-08T08:32:15.843Z,993.60
2023-03-08T08:33:15.808Z,993.60
2023-03-08T08:34:15.813Z,993.59
2023-03-08T08:35:15.806Z,993.58
2023-03-08T08:36:15.908Z,993.55
2023-03-08T08:37:15.816Z,993.53
2023-03-08T08:38:15.822Z,993.49
2023-03-08T08:39:15.823Z,993.45
2023-03-08T08:40:15.834Z,993.48
2023-03-08T08:41:15.832Z,993.45
2023-03-08T08:42:15.833Z,993.41
2023-03-08T08:43:15.836Z,993.40
2023-03-08T08:44:15.857Z,993.40
2023-03-08T08:45:15.839Z,993.42
2023-03-08T08:46:15.845Z,993.41
2023-03-08T08:47:15.851Z,993.34
2023-03-08T08:48:15.857Z,993.35
2023-03-08T08:49:15.861Z,993.34
2023-03-08T08:50:15.857Z,993.32
2023-03-08T08:51:15.868Z,993.31
2023-03-08T08:52:15.865Z,993.31
2023-03-08T08:53:15.917Z,993.30
2023-03-08T08:54:15.920Z,993.31
2023-03-08T08:55:15.875Z,993.28
2023-03-08T08:56:26.238Z,993.25
2023-03-08T08:57:15.872Z,993.31
2023-03-08T08:58:15.891Z,993.25
2023-03-08T08:59:15.886Z,993.24
2023-03-08T09:00:15.939Z,993.26
2023-03-08T09:01:15.891Z,993.26
2023-03-08T09:02:15.953Z,993.25
2023-03-08T09:03:15.891Z,993.30
2023-03-08T09:04:16.027Z,993.25
2023-03-08T09:05:15.950Z,993.26
2023-03-08T09:06:15.910Z,993.24
2023-03-08T09:07:15.902Z,993.21
2023-03-08T09:08:15.914Z,993.18
2023-03-08T09:09:15.909Z,993.19
2023-03-08T09:10:15.922Z,993.22
2023-03-08T09:11:15.915Z,993.19
2023-03-08T09:12:15.924Z,993.17
2023-03-08T09:13:15.972Z,993.13
2023-03-08T09:14:15.927Z,993.11
2023-03-08T09:15:15.932Z,993.09
2023-03-08T09:16:15.984Z,993.12
2023-03-08T09:17:15.927Z,993.12
2023-03-08T09:18:15.938Z,993.13
2023-03-08T09:19:16.048Z,993.05
2023-03-08T09:20:15.944Z,993.00
2023-03-08T09:21:15.940Z,993.01
2023-03-08T09:22:15.951Z,993.05
2023-03-08T09:23:15.966Z,993.05
2023-03-08T09:24:15.951Z,993.07
2023-03-08T09:25:15.952Z,993.09
2023-03-08T09:26:15.964Z,993.03
2023-03-08T09:27:15.965Z,993.05
2023-03-08T09:28:15.964Z,993.08
2023-03-08T09:29:15.970Z,993.05
2023-03-08T09:30:15.975Z,993.08
2023-03-08T09:31:15.987Z,993.10
2023-03-08T09:32:16.149Z,993.08
2023-03-08T09:33:15.981Z,993.05
2023-03-08T09:34:15.986Z,993.02
2023-03-08T09:35:15.988Z,993.00
2023-03-08T09:36:15.988Z,993.01
2023-03-08T09:37:15.985Z,993.00
2023-03-08T09:38:15.996Z,992.98
2023-03-08T09:39:15.999Z,992.94
2023-03-08T09:40:16.007Z,992.89
2023-03-08T09:41:16.014Z,992.89
2023-03-08T09:42:15.999Z,992.90
2023-03-08T09:43:16.010Z,992.90
2023-03-08T09:44:16.006Z,992.95
2023-03-08T09:45:16.015Z,992.88
2023-03-08T09:46:16.020Z,992.92
2023-03-08T09:47:16.012Z,992.89
2023-03-08T09:48:16.133Z,992.90
2023-03-08T09:49:16.028Z,992.87
2023-03-08T09:50:16.024Z,992.88
2023-03-08T09:51:16.022Z,992.87
2023-03-08T09:52:16.037Z,992.83
2023-03-08T09:53:16.062Z,992.87
2023-03-08T09:54:16.040Z,992.84
2023-03-08T09:55:16.135Z,992.83
2023-03-08T09:56:16.037Z,992.84
2023-03-08T09:57:16.116Z,992.78
2023-03-08T09:58:16.038Z,992.79
2023-03-08T09:59:16.085Z,992.80
2023-03-08T10:00:16.045Z,992.77
2023-03-08T10:01:16.057Z,992.74
2023-03-08T10:02:16.056Z,992.72
2023-03-08T10:03:16.109Z,992.68
2023-03-08T10:04:16.166Z,992.66
2023-03-08T10:05:16.059Z,992.63
2023-03-08T10:06:16.065Z,992.61
2023-03-08T10:07:16.079Z,992.63
2023-03-08T10:08:16.087Z,992.61
2023-03-08T10:09:16.075Z,992.57
2023-03-08T10:10:16.098Z,992.59
2023-03-08T10:11:16.079Z,992.55
2023-03-08T10:12:16.086Z,992.56
2023-03-08T10:13:16.093Z,992.58
2023-03-08T10:14:16.095Z,992.53
2023-03-08T10:15:16.098Z,992.49
2023-03-08T10:16:16.185Z,992.49
2023-03-08T10:17:16.099Z,992.43
2023-03-08T10:18:16.108Z,992.44
2023-03-08T10:19:16.107Z,992.40
2023-03-08T10:20:16.150Z,992.39
2023-03-08T10:21:16.114Z,992.37
2023-03-08T10:22:16.120Z,992.33
2023-03-08T10:23:16.125Z,992.35
2023-03-08T10:24:16.128Z,992.33
2023-03-08T10:25:16.132Z,992.36
2023-03-08T10:26:16.140Z,992.29
2023-03-08T10:27:16.145Z,992.27
2023-03-08T10:28:16.150Z,992.23
2023-03-08T10:29:16.159Z,992.24
2023-03-08T10:30:16.164Z,992.18
2023-03-08T10:31:16.245Z,992.17
2023-03-08T10:32:16.260Z,992.18
2023-03-08T10:33:16.163Z,992.12
2023-03-08T10:34:16.182Z,992.12
2023-03-08T10:35:16.189Z,992.09
2023-03-08T10:36:16.210Z,992.07
2023-03-08T10:37:16.200Z,992.07
2023-03-08T10:38:16.190Z,992.05
2023-03-08T10:39:16.201Z,992.01
2023-03-08T10:40:16.198Z,992.05
2023-03-08T10:41:16.209Z,992.00
2023-03-08T10:42:16.360Z,991.99
2023-03-08T10:43:16.212Z,991.94
2023-03-08T10:44:16.228Z,991.94
2023-03-08T10:45:16.233Z,991.92
2023-03-08T10:46:16.306Z,991.93
2023-03-08T10:47:16.232Z,991.91
2023-03-08T10:48:16.242Z,991.88
2023-03-08T10:49:16.251Z,991.87
2023-03-08T10:50:16.254Z,991.82
2023-03-08T10:51:16.251Z,991.78
2023-03-08T10:52:16.325Z,991.81
2023-03-08T10:53:16.292Z,991.74
2023-03-08T10:54:16.278Z,991.74
2023-03-08T10:55:16.282Z,991.75
2023-03-08T10:56:16.356Z,991.71
2023-03-08T10:57:16.278Z,991.67
2023-03-08T10:58:16.292Z,991.64
2023-03-08T10:59:16.303Z,991.64
2023-03-08T11:00:16.314Z,991.63
2023-03-08T11:01:16.306Z,991.63
2023-03-08T11:02:16.363Z,991.62
2023-03-08T11:03:16.334Z,991.61
2023-03-08T11:04:16.469Z,991.57
2023-03-08T11:05:16.325Z,991.56
2023-03-08T11:06:16.322Z,991.52
2023-03-08T11:07:16.327Z,991.51
2023-03-08T11:08:16.374Z,991.47
2023-03-08T11:09:16.343Z,991.48
2023-03-08T11:10:16.386Z,991.44
2023-03-08T11:11:16.361Z,991.43
2023-03-08T11:12:16.481Z,991.41
2023-03-08T11:13:16.359Z,991.38
2023-03-08T11:14:16.419Z,991.34
2023-03-08T11:15:16.369Z,991.35
2023-03-08T11:16:16.425Z,991.36
2023-03-08T11:17:16.380Z,991.29
2023-03-08T11:18:16.378Z,991.33
2023-03-08T11:19:16.423Z,991.33
2023-03-08T11:20:16.399Z,991.25
2023-03-08T11:21:16.395Z,991.22
2023-03-08T11:22:16.406Z,991.24
2023-03-08T11:23:16.410Z,991.22
2023-03-08T11:24:16.445Z,991.22
2023-03-08T11:25:16.416Z,991.20
2023-03-08T11:26:16.419Z,991.17
2023-03-08T11:27:16.487Z,991.13
2023-03-08T11:28:16.418Z,991.14
2023-03-08T11:29:16.474Z,991.06
2023-03-08T11:30:16.431Z,991.07
2023-03-08T11:31:16.493Z,991.06
2023-03-08T11:32:16.600Z,991.05
2023-03-08T11:33:16.612Z,991.02
2023-03-08T11:34:16.454Z,991.05
2023-03-08T11:35:16.455Z,991.03
2023-03-08T11:36:16.469Z,991.05
2023-03-08T11:37:16.463Z,991.04
2023-03-08T11:38:16.469Z,991.05
2023-03-08T11:39:16.475Z,990.96
2023-03-08T11:40:16.564Z,990.96
2023-03-08T11:41:16.480Z,990.91
2023-03-08T11:42:16.615Z,990.93
2023-03-08T11:43:16.482Z,990.95
2023-03-08T11:44:16.492Z,990.92
2023-03-08T11:45:16.495Z,990.92
2023-03-08T11:46:16.555Z,990.93
2023-03-08T11:47:16.495Z,990.87
2023-03-08T11:48:16.510Z,990.91
2023-03-08T11:49:16.509Z,990.93
2023-03-08T11:50:16.513Z,990.92
2023-03-08T11:51:16.512Z,990.92
2023-03-08T11:52:16.518Z,990.88
2023-03-08T11:53:16.536Z,990.88
2023-03-08T11:54:16.531Z,990.85
2023-03-08T11:55:16.630Z,990.89
2023-03-08T11:56:16.571Z,990.83
2023-03-08T11:57:16.533Z,990.86
2023-03-08T11:58:16.541Z,990.87
2023-03-08T11:59:16.546Z,990.88
2023-03-08T12:00:16.547Z,990.81
2023-03-08T12:01:16.544Z,990.84
2023-03-08T12:02:16.548Z,990.84
2023-03-08T12:03:16.627Z,990.82
2023-03-08T12:04:16.586Z,990.82
2023-03-08T12:05:16.686Z,990.75
2023-03-08T12:06:28.238Z,990.76
2023-03-08T12:07:16.674Z,990.71
2023-03-08T12:08:16.586Z,990.73
2023-03-08T12:09:16.604Z,990.72
2023-03-08T12:10:16.726Z,990.71
2023-03-08T12:11:16.576Z,990.70
2023-03-08T12:12:16.618Z,990.71
2023-03-08T12:13:16.610Z,990.72
2023-03-08T12:14:16.587Z,990.69
2023-03-08T12:15:16.661Z,990.72
2023-03-08T12:16:16.658Z,990.72
2023-03-08T12:17:16.648Z,990.71
2023-03-08T12:18:16.595Z,990.75
2023-03-08T12:19:16.613Z,990.72
2023-03-08T12:20:16.622Z,990.73
2023-03-08T12:21:16.613Z,990.77
2023-03-08T12:22:16.626Z,990.76
2023-03-08T12:23:16.617Z,990.78
2023-03-08T12:24:16.673Z,990.77
2023-03-08T12:25:16.625Z,990.80
2023-03-08T12:26:16.656Z,990.81
2023-03-08T12:27:16.625Z,990.79
2023-03-08T12:28:16.724Z,990.76